createdAt,value
2022-10-13T00:00:33.327Z,8.52
2022-10-13T00:03:05.236Z,8.30
2022-10-13T00:05:45.907Z,8.93
2022-10-13T00:08:21.311Z,8.35
2022-10-13T00:10:53.227Z,8.95
2022-10-13T00:13:29.082Z,8.07
2022-10-13T00:16:03.001Z,8.65
2022-10-13T00:18:35.658Z,8.82
2022-10-13T00:21:09.690Z,8.30
2022-10-13T00:23:42.347Z,8.75
2022-10-13T00:26:16.146Z,8.85
2022-10-13T00:28:52.223Z,8.68
2022-10-13T00:31:32.229Z,9.15
2022-10-13T00:34:04.050Z,8.70
2022-10-13T00:36:35.954Z,9.18
2022-10-13T00:39:08.229Z,8.50
2022-10-13T00:41:40.091Z,8.63
2022-10-13T00:44:50.538Z,8.77
2022-10-13T00:47:22.649Z,9.07
2022-10-13T00:49:55.985Z,8.85
2022-10-13T00:52:30.177Z,9.63
2022-10-13T00:55:05.511Z,8.80
2022-10-13T00:57:40.338Z,8.93
2022-10-13T01:00:12.915Z,8.95
2022-10-13T01:02:44.771Z,9.07
2022-10-13T01:05:18.377Z,9.30
2022-10-13T01:07:52.021Z,9.07
2022-10-13T01:10:51.839Z,9.02
2022-10-13T01:13:50.974Z,8.65
2022-10-13T01:16:39.775Z,9.18
2022-10-13T01:19:39.898Z,8.80
2022-10-13T01:22:26.695Z,8.80
2022-10-13T01:25:10.975Z,8.07
2022-10-13T01:28:01.302Z,7.93
2022-10-13T01:30:37.686Z,8.85
2022-10-13T01:33:30.063Z,8.43
2022-10-13T01:36:02.005Z,9.20
2022-10-13T01:38:56.116Z,8.80
2022-10-13T01:41:38.653Z,8.68
2022-10-13T01:44:16.376Z,8.80
2022-10-13T01:46:56.862Z,9.23
2022-10-13T01:49:33.398Z,8.45
2022-10-13T01:52:10.511Z,8.25
2022-10-13T01:54:42.701Z,8.70
2022-10-13T01:57:32.565Z,8.23
2022-10-13T02:00:17.490Z,9.10
2022-10-13T02:03:11.141Z,7.65
2022-10-13T02:05:49.545Z,8.00
2022-10-13T02:09:05.204Z,7.93
2022-10-13T02:11:41.738Z,8.40
2022-10-13T02:14:22.352Z,8.57
2022-10-13T02:16:59.068Z,8.50
2022-10-13T02:19:35.919Z,8.23
2022-10-13T02:22:09.732Z,8.73
2022-10-13T02:24:41.965Z,7.97
2022-10-13T02:27:14.252Z,8.90
2022-10-13T02:29:54.582Z,8.43
2022-10-13T02:32:30.541Z,8.57
2022-10-13T02:35:02.503Z,9.13
2022-10-13T02:37:34.380Z,8.45
2022-10-13T02:40:07.340Z,8.88
2022-10-13T02:42:39.311Z,8.75
2022-10-13T02:45:11.265Z,8.32
2022-10-13T02:47:43.461Z,8.63
2022-10-13T02:50:15.541Z,9.40
2022-10-13T02:52:47.443Z,9.02
2022-10-13T02:55:19.387Z,8.35
2022-10-13T02:57:57.135Z,7.97
2022-10-13T03:00:29.022Z,9.43
2022-10-13T03:03:00.996Z,8.35
2022-10-13T03:05:33.362Z,8.25
2022-10-13T03:08:05.781Z,9.30
2022-10-13T03:10:37.782Z,8.45
2022-10-13T03:13:09.661Z,8.63
2022-10-13T03:15:41.556Z,8.88
2022-10-13T03:18:13.778Z,8.88
2022-10-13T03:20:45.732Z,9.00
2022-10-13T03:23:17.599Z,9.50
2022-10-13T03:25:49.552Z,9.10
2022-10-13T03:28:22.030Z,9.27
2022-10-13T03:31:07.141Z,9.45
2022-10-13T03:33:40.122Z,9.63
2022-10-13T03:36:13.502Z,9.70
2022-10-13T03:38:47.690Z,9.65
2022-10-13T03:41:19.871Z,9.73
2022-10-13T03:43:54.791Z,10.32
2022-10-13T03:46:28.765Z,10.20
2022-10-13T03:49:02.115Z,9.70
2022-10-13T03:51:35.086Z,10.40
2022-10-13T03:54:07.085Z,9.98
2022-10-13T03:56:39.903Z,10.02
2022-10-13T03:59:17.375Z,10.75
2022-10-13T04:01:49.477Z,9.80
2022-10-13T04:04:21.367Z,9.45
2022-10-13T04:06:55.863Z,9.73
2022-10-13T04:09:27.858Z,9.63
2022-10-13T04:12:00.048Z,9.20
2022-10-13T04:14:31.952Z,9.90
2022-10-13T04:17:10.350Z,9.80
2022-10-13T04:19:42.249Z,9.70
2022-10-13T04:22:14.172Z,9.40
2022-10-13T04:24:46.123Z,9.93
2022-10-13T04:27:19.964Z,9.88
2022-10-13T04:29:51.827Z,10.20
2022-10-13T04:32:23.874Z,9.77
2022-10-13T04:34:55.680Z,9.70
2022-10-13T04:37:27.551Z,9.95
2022-10-13T04:39:59.417Z,10.30
2022-10-13T04:42:31.310Z,9.82
2022-10-13T04:45:03.808Z,10.45
2022-10-13T04:47:37.217Z,9.80
2022-10-13T04:50:09.927Z,9.43
2022-10-13T04:52:41.877Z,11.07
2022-10-13T04:55:13.772Z,10.60
2022-10-13T04:57:45.987Z,9.93
2022-10-13T05:00:18.179Z,11.50
2022-10-13T05:02:50.086Z,10.52
2022-10-13T05:05:21.931Z,9.60
2022-10-13T05:07:53.852Z,10.25
2022-10-13T05:10:25.715Z,10.23
2022-10-13T05:12:57.651Z,10.38
2022-10-13T05:15:29.593Z,10.40
2022-10-13T05:18:01.461Z,10.70
2022-10-13T05:20:33.462Z,10.45
2022-10-13T05:23:05.559Z,10.35
2022-10-13T05:25:38.433Z,10.52
2022-10-13T05:28:10.502Z,11.18
2022-10-13T05:30:42.383Z,11.07
2022-10-13T05:33:14.262Z,10.60
2022-10-13T05:35:46.087Z,10.18
2022-10-13T05:38:20.445Z,10.93
2022-10-13T05:41:06.018Z,11.50
2022-10-13T05:43:39.929Z,11.35
2022-10-13T05:46:12.144Z,11.38
2022-10-13T05:48:44.638Z,10.52
2022-10-13T05:51:24.302Z,10.63
2022-10-13T05:54:03.907Z,10.30
2022-10-13T05:56:44.823Z,11.77
2022-10-13T05:59:20.539Z,10.35
2022-10-13T06:01:55.044Z,11.25
2022-10-13T06:04:36.056Z,10.93
2022-10-13T06:07:09.820Z,10.35
2022-10-13T06:09:43.687Z,10.57
2022-10-13T06:12:15.772Z,10.93
2022-10-13T06:14:47.691Z,10.25
2022-10-13T06:17:20.099Z,9.85
2022-10-13T06:19:52.213Z,10.20
2022-10-13T06:22:24.219Z,10.68
2022-10-13T06:24:56.278Z,11.23
2022-10-13T06:27:28.268Z,11.20
2022-10-13T06:30:02.292Z,10.95
2022-10-13T06:32:34.248Z,11.85
2022-10-13T06:35:06.875Z,10.85
2022-10-13T06:37:38.744Z,9.88
2022-10-13T06:40:16.203Z,10.93
2022-10-13T06:42:51.426Z,9.95
2022-10-13T06:45:27.050Z,9.02
2022-10-13T06:47:58.950Z,8.90
2022-10-13T06:50:32.276Z,9.38
2022-10-13T06:53:04.216Z,10.23
2022-10-13T06:55:36.144Z,9.52
2022-10-13T06:58:07.996Z,8.93
2022-10-13T07:00:41.809Z,9.32
2022-10-13T07:03:13.730Z,9.48
2022-10-13T07:05:45.779Z,9.30
2022-10-13T07:08:18.052Z,8.88
2022-10-13T07:10:49.873Z,9.32
2022-10-13T07:15:58.462Z,9.07
2022-10-13T07:18:30.567Z,9.38
2022-10-13T07:21:02.883Z,8.95
2022-10-13T07:23:34.801Z,9.70
2022-10-13T07:26:12.358Z,9.10
2022-10-13T07:28:44.951Z,9.00
2022-10-13T07:31:19.597Z,9.68
2022-10-13T07:33:51.787Z,24.65
2022-10-13T07:36:24.095Z,12.63
2022-10-13T07:38:56.422Z,11.13
2022-10-13T07:41:28.675Z,12.27
2022-10-13T07:44:00.675Z,11.63
2022-10-13T07:46:32.627Z,12.30
2022-10-13T07:49:04.440Z,11.20
2022-10-13T07:51:36.317Z,9.45
2022-10-13T07:54:08.176Z,9.52
2022-10-13T07:56:41.426Z,9.75
2022-10-13T07:59:14.495Z,7.95
2022-10-13T08:01:46.359Z,8.02
2022-10-13T08:04:18.527Z,9.15
2022-10-13T08:06:50.478Z,9.88
2022-10-13T08:09:22.397Z,7.88
2022-10-13T08:11:57.640Z,7.40
2022-10-13T08:14:32.396Z,7.75
2022-10-13T08:17:04.418Z,7.43
2022-10-13T08:19:36.332Z,7.88
2022-10-13T08:22:10.179Z,7.13
2022-10-13T08:24:42.052Z,7.80
2022-10-13T08:27:20.764Z,7.68
2022-10-13T08:29:54.761Z,7.95
2022-10-13T08:32:26.707Z,7.10
2022-10-13T08:34:58.934Z,7.68
2022-10-13T08:37:30.801Z,8.52
2022-10-13T08:40:02.691Z,6.65
2022-10-13T08:42:35.134Z,7.47
2022-10-13T08:45:39.312Z,7.57
2022-10-13T08:48:04.770Z,7.22
2022-10-13T08:50:40.907Z,7.30
2022-10-13T08:53:18.488Z,6.85
2022-10-13T08:56:07.589Z,6.88
2022-10-13T08:58:42.576Z,6.78
2022-10-13T09:01:19.648Z,6.80
2022-10-13T09:04:12.034Z,7.55
2022-10-13T09:06:49.698Z,7.03
2022-10-13T09:09:21.830Z,7.13
2022-10-13T09:11:53.730Z,7.45
2022-10-13T09:14:34.522Z,7.95
2022-10-13T09:17:25.029Z,7.63
2022-10-13T09:20:15.958Z,7.45
2022-10-13T09:23:14.804Z,8.63
2022-10-13T09:25:49.483Z,9.02
2022-10-13T09:28:25.857Z,7.47
2022-10-13T09:31:15.610Z,7.68
2022-10-13T09:34:01.845Z,7.45
2022-10-13T09:36:34.344Z,7.93
2022-10-13T09:39:09.001Z,7.10
2022-10-13T09:41:43.803Z,11.13
2022-10-13T09:44:30.792Z,8.07
2022-10-13T09:47:03.988Z,7.43
2022-10-13T09:49:43.426Z,7.40
2022-10-13T09:52:21.573Z,8.07
2022-10-13T09:54:58.159Z,8.30
2022-10-13T09:57:36.150Z,8.57
2022-10-13T10:00:11.557Z,8.30
2022-10-13T10:03:25.087Z,8.88
2022-10-13T10:06:00.013Z,9.13
2022-10-13T10:09:04.261Z,10.32
2022-10-13T10:11:43.417Z,10.18
2022-10-13T10:14:25.731Z,10.02
2022-10-13T10:17:20.937Z,10.95
2022-10-13T10:20:21.735Z,10.90
2022-10-13T10:23:08.011Z,10.95
2022-10-13T10:25:49.249Z,10.52
2022-10-13T10:28:42.395Z,15.02
2022-10-13T10:31:46.189Z,16.73
2022-10-13T10:34:28.678Z,10.98
2022-10-13T10:37:22.831Z,10.27
2022-10-13T10:39:59.957Z,12.18
2022-10-13T10:42:52.210Z,12.77
2022-10-13T10:45:31.430Z,11.45
2022-10-13T10:48:16.947Z,12.50
2022-10-13T10:50:51.422Z,13.35
2022-10-13T10:53:30.974Z,14.35
2022-10-13T10:56:32.607Z,12.40
2022-10-13T10:59:32.939Z,12.05
2022-10-13T11:02:24.494Z,13.35
2022-10-13T11:05:02.129Z,14.77
2022-10-13T11:10:16.623Z,16.35
2022-10-13T11:12:48.496Z,18.95
2022-10-13T11:15:28.843Z,17.67
2022-10-13T11:18:00.706Z,13.38
2022-10-13T11:20:35.634Z,12.63
2022-10-13T11:23:13.559Z,12.93
2022-10-13T11:25:47.623Z,11.00
2022-10-13T11:28:22.702Z,12.65
2022-10-13T11:31:17.328Z,13.13
2022-10-13T11:33:53.448Z,13.13
2022-10-13T11:36:32.016Z,12.45
2022-10-13T11:39:16.114Z,12.27
2022-10-13T11:42:02.782Z,12.45
2022-10-13T11:45:00.755Z,15.27
2022-10-13T11:47:54.376Z,13.48
2022-10-13T11:51:03.529Z,16.15
2022-10-13T11:53:58.744Z,14.40
2022-10-13T11:56:57.477Z,25.70
2022-10-13T11:59:32.254Z,13.80
2022-10-13T12:02:10.198Z,12.15
2022-10-13T12:04:46.556Z,13.43
2022-10-13T12:07:22.331Z,14.50
2022-10-13T12:09:57.125Z,12.00
2022-10-13T12:12:29.476Z,11.82
2022-10-13T12:15:04.386Z,13.07
2022-10-13T12:17:39.063Z,12.43
2022-10-13T12:20:24.145Z,13.10
2022-10-13T12:22:57.179Z,11.05
2022-10-13T12:25:30.856Z,10.30
2022-10-13T12:28:03.079Z,11.77
2022-10-13T12:30:38.117Z,11.05
2022-10-13T12:33:28.225Z,10.27
2022-10-13T12:36:20.518Z,9.55
2022-10-13T12:38:54.754Z,10.05
2022-10-13T12:41:29.398Z,11.40
2022-10-13T12:44:05.720Z,9.77
2022-10-13T12:46:43.791Z,10.07
2022-10-13T12:49:27.281Z,9.00
2022-10-13T12:52:23.856Z,10.10
2022-10-13T12:54:57.791Z,9.30
2022-10-13T12:57:38.427Z,9.77
2022-10-13T13:00:19.815Z,10.05
2022-10-13T13:02:57.118Z,8.70
2022-10-13T13:05:45.751Z,13.65
2022-10-13T13:10:58.514Z,10.00
2022-10-13T13:13:30.908Z,9.10
2022-10-13T13:16:23.327Z,9.82
2022-10-13T13:18:55.779Z,8.80
2022-10-13T13:21:27.710Z,9.77
2022-10-13T13:24:01.422Z,8.90
2022-10-13T13:26:36.026Z,8.63
2022-10-13T13:29:10.734Z,8.63
2022-10-13T13:31:42.635Z,9.30
2022-10-13T13:34:14.588Z,9.32
2022-10-13T13:36:49.115Z,8.07
2022-10-13T13:39:21.016Z,7.75
2022-10-13T13:41:52.875Z,8.43
2022-10-13T13:44:24.777Z,9.15
2022-10-13T13:46:56.683Z,12.65
2022-10-13T13:49:28.564Z,11.13
2022-10-13T13:52:01.863Z,9.13
2022-10-13T13:54:33.746Z,8.98
2022-10-13T13:57:06.102Z,9.63
2022-10-13T13:59:39.083Z,9.52
2022-10-13T14:02:18.224Z,9.63
2022-10-13T14:04:53.427Z,9.13
2022-10-13T14:07:25.445Z,9.45
2022-10-13T14:10:01.014Z,10.40
2022-10-13T14:12:34.359Z,11.43
2022-10-13T14:15:06.944Z,10.70
2022-10-13T14:17:39.133Z,10.65
2022-10-13T14:20:11.478Z,9.95
2022-10-13T14:22:44.144Z,9.85
2022-10-13T14:25:16.191Z,11.93
2022-10-13T14:27:49.546Z,11.05
2022-10-13T14:30:21.434Z,14.75
2022-10-13T14:32:53.262Z,12.93
2022-10-13T14:35:25.208Z,11.63
2022-10-13T14:37:57.381Z,12.38
2022-10-13T14:40:29.385Z,13.02
2022-10-13T14:43:01.661Z,13.20
2022-10-13T14:45:36.616Z,13.18
2022-10-13T14:48:08.482Z,13.50
2022-10-13T14:50:40.679Z,12.68
2022-10-13T14:53:15.393Z,13.95
2022-10-13T14:55:51.535Z,13.15
2022-10-13T14:58:23.727Z,14.25
2022-10-13T15:00:55.976Z,15.25
2022-10-13T15:03:28.152Z,15.80
2022-10-13T15:06:00.233Z,19.02
2022-10-13T15:08:33.498Z,19.67
2022-10-13T15:11:05.601Z,17.23
2022-10-13T15:13:38.547Z,17.08
2022-10-13T15:16:22.332Z,17.55
2022-10-13T15:18:55.282Z,15.45
2022-10-13T15:21:27.308Z,14.98
2022-10-13T15:23:59.196Z,14.10
2022-10-13T15:26:31.288Z,16.30
2022-10-13T15:29:03.725Z,15.93
2022-10-13T15:31:35.700Z,15.55
2022-10-13T15:34:07.570Z,14.77
2022-10-13T15:36:39.416Z,15.43
2022-10-13T15:39:11.435Z,15.98
2022-10-13T15:41:43.325Z,16.45
2022-10-13T15:44:17.001Z,18.20
2022-10-13T15:47:07.145Z,17.77
2022-10-13T15:49:40.155Z,16.17
2022-10-13T15:52:12.092Z,17.25
2022-10-13T15:54:44.151Z,16.55
2022-10-13T15:57:18.737Z,15.93
2022-10-13T15:59:50.680Z,16.38
2022-10-13T16:02:24.126Z,16.25
2022-10-13T16:05:04.662Z,17.40
2022-10-13T16:07:38.154Z,17.02
2022-10-13T16:10:12.437Z,16.33
2022-10-13T16:12:49.497Z,15.73
2022-10-13T16:15:21.701Z,16.23
2022-10-13T16:17:53.887Z,16.40
2022-10-13T16:20:26.402Z,17.27
2022-10-13T16:22:58.291Z,15.93
2022-10-13T16:25:31.933Z,18.30
2022-10-13T16:28:03.893Z,16.77
2022-10-13T16:30:37.231Z,17.00
2022-10-13T16:33:09.252Z,16.83
2022-10-13T16:35:41.188Z,16.05
2022-10-13T16:38:14.304Z,16.73
2022-10-13T16:40:46.484Z,15.90
2022-10-13T16:43:18.519Z,17.38
2022-10-13T16:45:59.893Z,17.40
2022-10-13T16:48:32.716Z,18.00
2022-10-13T16:51:06.804Z,16.92
2022-10-13T16:53:39.260Z,16.67
2022-10-13T16:56:11.126Z,17.88
2022-10-13T16:58:45.229Z,16.60
2022-10-13T17:01:17.410Z,17.63
2022-10-13T17:03:50.747Z,17.50
2022-10-13T17:06:25.862Z,18.52
2022-10-13T17:09:03.309Z,18.40
2022-10-13T17:11:38.442Z,19.20
2022-10-13T17:14:11.355Z,18.08
2022-10-13T17:16:44.192Z,18.38
2022-10-13T17:19:16.099Z,18.48
2022-10-13T17:21:48.270Z,18.35
2022-10-13T17:24:20.195Z,18.88
2022-10-13T17:26:54.806Z,18.30
2022-10-13T17:29:26.621Z,19.08
2022-10-13T17:31:58.606Z,18.75
2022-10-13T17:34:30.612Z,19.65
2022-10-13T17:37:04.965Z,19.45
2022-10-13T17:39:36.900Z,19.15
2022-10-13T17:42:08.750Z,19.60
2022-10-13T17:44:42.682Z,19.30
2022-10-13T17:47:16.556Z,18.98
2022-10-13T17:49:48.728Z,19.05
2022-10-13T17:52:20.748Z,19.85
2022-10-13T17:54:52.688Z,19.13
2022-10-13T17:57:24.583Z,20.75
2022-10-13T17:59:58.882Z,19.17
2022-10-13T18:02:30.710Z,19.65
2022-10-13T18:05:02.622Z,20.45
2022-10-13T18:07:34.486Z,19.33
2022-10-13T18:10:07.288Z,20.10
2022-10-13T18:12:39.111Z,20.65
2022-10-13T18:15:10.989Z,19.67
2022-10-13T18:17:42.905Z,20.08
2022-10-13T18:20:14.778Z,19.90
2022-10-13T18:22:48.170Z,21.38
2022-10-13T18:25:20.086Z,20.90
2022-10-13T18:27:51.990Z,21.10
2022-10-13T18:30:23.883Z,20.17
2022-10-13T18:32:55.893Z,20.02
2022-10-13T18:35:32.342Z,21.17
2022-10-13T18:38:04.308Z,19.63
2022-10-13T18:40:40.330Z,21.38
2022-10-13T18:43:12.259Z,20.17
2022-10-13T18:45:44.153Z,20.40
2022-10-13T18:48:16.159Z,19.65
2022-10-13T18:50:48.115Z,21.25
2022-10-13T18:53:20.141Z,20.38
2022-10-13T18:56:01.437Z,21.13
2022-10-13T19:01:11.014Z,20.65
2022-10-13T19:03:44.202Z,19.88
2022-10-13T19:06:16.817Z,20.13
2022-10-13T19:08:50.424Z,20.75
2022-10-13T19:11:22.938Z,19.98
2022-10-13T19:13:55.133Z,20.73
2022-10-13T19:16:29.497Z,20.45
2022-10-13T19:19:01.442Z,20.25
2022-10-13T19:21:34.030Z,20.27
2022-10-13T19:24:07.283Z,19.77
2022-10-13T19:26:39.571Z,20.08
2022-10-13T19:29:14.021Z,20.00
2022-10-13T19:31:45.909Z,20.58
2022-10-13T19:34:18.265Z,21.45
2022-10-13T19:36:50.647Z,20.50
2022-10-13T19:39:24.150Z,19.25
2022-10-13T19:41:57.325Z,19.75
2022-10-13T19:44:29.648Z,20.25
2022-10-13T19:47:01.982Z,20.05
2022-10-13T19:49:37.285Z,20.52
2022-10-13T19:52:09.742Z,19.25
2022-10-13T19:54:45.539Z,20.30
2022-10-13T19:57:18.484Z,20.85
2022-10-13T19:59:51.222Z,19.10
2022-10-13T20:02:23.594Z,20.83
2022-10-13T20:04:55.644Z,19.40
2022-10-13T20:07:27.548Z,19.77
2022-10-13T20:09:59.431Z,20.02
2022-10-13T20:12:35.618Z,20.08
2022-10-13T20:15:08.235Z,19.98
2022-10-13T20:17:40.134Z,19.98
2022-10-13T20:20:12.059Z,19.25
2022-10-13T20:22:43.936Z,19.45
2022-10-13T20:25:19.591Z,18.67
2022-10-13T20:27:51.606Z,19.92
2022-10-13T20:30:23.601Z,19.25
2022-10-13T20:32:56.406Z,18.45
2022-10-13T20:35:30.887Z,35.42
2022-10-13T20:38:03.028Z,19.00
2022-10-13T20:40:34.865Z,18.88
2022-10-13T20:43:06.715Z,18.65
2022-10-13T20:45:38.621Z,17.75
2022-10-13T20:48:10.588Z,18.90
2022-10-13T20:50:42.447Z,19.80
2022-10-13T20:53:14.483Z,18.25
2022-10-13T20:55:56.086Z,18.58
2022-10-13T20:58:29.509Z,18.60
2022-10-13T21:01:01.413Z,18.75
2022-10-13T21:03:33.472Z,18.00
2022-10-13T21:06:11.967Z,18.02
2022-10-13T21:08:47.308Z,18.35
2022-10-13T21:11:21.529Z,19.73
2022-10-13T21:13:53.801Z,19.00
2022-10-13T21:16:28.329Z,18.25
2022-10-13T21:19:00.270Z,20.48
2022-10-13T21:21:34.348Z,17.73
2022-10-13T21:24:07.827Z,18.10
2022-10-13T21:26:40.248Z,18.17
2022-10-13T21:29:17.465Z,18.55
2022-10-13T21:31:49.340Z,19.13
2022-10-13T21:34:21.263Z,17.67
2022-10-13T21:36:53.174Z,18.52
2022-10-13T21:39:25.010Z,18.02
2022-10-13T21:41:56.895Z,18.65
2022-10-13T21:44:30.907Z,23.63
2022-10-13T21:47:02.986Z,18.13
2022-10-13T21:49:34.922Z,18.45
2022-10-13T21:52:06.838Z,18.35
2022-10-13T21:54:38.811Z,17.65
2022-10-13T21:57:10.682Z,19.27
2022-10-13T21:59:42.583Z,17.88
2022-10-13T22:02:14.538Z,18.42
2022-10-13T22:04:46.430Z,19.50
2022-10-13T22:07:18.493Z,19.67
2022-10-13T22:09:50.505Z,18.00
2022-10-13T22:12:22.371Z,19.13
2022-10-13T22:14:54.318Z,18.17
2022-10-13T22:17:26.357Z,18.35
2022-10-13T22:19:58.328Z,18.27
2022-10-13T22:22:31.088Z,18.23
2022-10-13T22:25:03.273Z,19.02
2022-10-13T22:27:37.331Z,17.83
2022-10-13T22:30:09.814Z,18.13
2022-10-13T22:32:41.738Z,19.40
2022-10-13T22:35:13.782Z,18.58
2022-10-13T22:37:45.646Z,18.73
2022-10-13T22:40:17.512Z,20.08
2022-10-13T22:42:49.515Z,18.63
2022-10-13T22:45:21.437Z,18.23
2022-10-13T22:47:53.717Z,18.95
2022-10-13T22:50:25.554Z,19.80
2022-10-13T22:52:57.412Z,18.60
2022-10-13T22:55:29.235Z,18.17
2022-10-13T22:58:01.166Z,19.35
2022-10-13T23:00:35.517Z,19.58
2022-10-13T23:03:07.515Z,18.80
2022-10-13T23:05:42.606Z,18.35
2022-10-13T23:08:15.019Z,19.48
2022-10-13T23:10:47.230Z,18.83
2022-10-13T23:13:19.106Z,19.42
2022-10-13T23:15:53.862Z,19.88
2022-10-13T23:18:30.158Z,19.38
2022-10-13T23:21:11.863Z,19.77
2022-10-13T23:23:44.258Z,18.92
2022-10-13T23:26:17.667Z,19.27
2022-10-13T23:28:49.521Z,19.48
2022-10-13T23:31:21.592Z,19.08
2022-10-13T23:33:54.203Z,20.20
2022-10-13T23:36:29.543Z,19.17
2022-10-13T23:39:04.940Z,19.90
2022-10-13T23:41:37.671Z,20.10
2022-10-13T23:44:09.646Z,19.75
2022-10-13T23:46:41.839Z,20.13
2022-10-13T23:49:15.507Z,19.95
2022-10-13T23:51:47.566Z,19.70
2022-10-13T23:54:19.642Z,20.80
2022-10-13T23:56:51.514Z,19.48
2022-10-13T23:59:23.523Z,20.33
